SAAR/ROS METAR and TAF weather

Enter ICAO airport designator
Station Type Date Time Source
SAAR METAR 2021/06/22 23:00 UTC NOAA

SAAR 222300Z 08009KT CAVOK 11/09 Q1017


Station Type Date Time Source
SAAR Decoded METAR 2021/06/22 23:00 UTC NOAA

Rosario Aerodrome, Argentina (SAAR) 32-55S 060-47W 25M
Jun 22, 2021 - 07:00 PM EDT / 2021.06.22 2300 UTC
Wind: from the E (080 degrees) at 10 MPH (9 KT):0
Visibility: greater than 7 mile(s):0
Temperature: 51 F (11 C)
Dew Point: 48 F (9 C)
Relative Humidity: 87%
Pressure (altimeter): 30.03 in. Hg (1017 hPa)
ob: SAAR 222300Z 08009KT CAVOK 11/09 Q1017
cycle: 23

Station Type Date Time Source
SAAR TAF 2021/06/22 18:43 UTC NOAA

TAF SAAR 221700Z 2218/2318 07010KT 9999 SCT020 TX17/2318Z TN09/2310Z
BECMG 2303/2305 4000 BR SCT008 BKN030
TEMPO 2308/2314 2000 BR DZ BKN010 OVC030
BECMG 2314/2316 8000 -RA SCT015 BKN035

Example: see airport list